createdAt,value
2023-02-24T00:01:52.579Z,100.00
2023-02-24T00:04:22.047Z,100.00
2023-02-24T00:06:51.254Z,100.00
2023-02-24T00:09:20.916Z,100.00
2023-02-24T00:11:53.823Z,100.00
2023-02-24T00:14:21.891Z,100.00
2023-02-24T00:16:49.912Z,100.00
2023-02-24T00:19:20.125Z,100.00
2023-02-24T00:21:48.380Z,100.00
2023-02-24T00:24:17.575Z,100.00
2023-02-24T00:26:48.362Z,100.00
2023-02-24T00:29:16.423Z,100.00
2023-02-24T00:31:44.418Z,100.00
2023-02-24T00:34:15.171Z,100.00
2023-02-24T00:36:43.057Z,100.00
2023-02-24T00:39:11.027Z,100.00
2023-02-24T00:41:41.624Z,100.00
2023-02-24T00:44:11.839Z,100.00
2023-02-24T00:46:41.921Z,100.00
2023-02-24T00:49:17.175Z,100.00
2023-02-24T00:51:47.296Z,100.00
2023-02-24T00:54:16.439Z,100.00
2023-02-24T00:56:47.453Z,100.00
2023-02-24T00:59:16.590Z,100.00
2023-02-24T01:01:45.772Z,100.00
2023-02-24T01:04:15.234Z,100.00
2023-02-24T01:06:46.126Z,100.00
2023-02-24T01:09:16.407Z,100.00
2023-02-24T01:12:22.930Z,100.00
2023-02-24T01:14:53.313Z,100.00
2023-02-24T01:17:22.573Z,100.00
2023-02-24T01:19:50.747Z,100.00
2023-02-24T01:22:20.626Z,100.00
2023-02-24T01:24:49.637Z,100.00
2023-02-24T01:27:19.760Z,100.00
2023-02-24T01:29:48.185Z,100.00
2023-02-24T01:32:19.024Z,100.00
2023-02-24T01:34:47.676Z,100.00
2023-02-24T01:37:16.969Z,100.00
2023-02-24T01:39:45.878Z,100.00
2023-02-24T01:42:19.145Z,100.00
2023-02-24T01:45:17.574Z,100.00
2023-02-24T01:47:47.825Z,100.00
2023-02-24T01:50:18.051Z,100.00
2023-02-24T01:52:48.098Z,100.00
2023-02-24T01:55:20.989Z,100.00
2023-02-24T01:57:51.393Z,100.00
2023-02-24T02:00:45.198Z,100.00
2023-02-24T02:03:20.081Z,100.00
2023-02-24T02:05:49.212Z,100.00
2023-02-24T02:08:18.553Z,100.00
2023-02-24T02:10:47.459Z,100.00
2023-02-24T02:13:21.188Z,100.00
2023-02-24T02:16:01.196Z,100.00
2023-02-24T02:18:41.108Z,100.00
2023-02-24T02:21:30.298Z,100.00
2023-02-24T02:24:19.132Z,100.00
2023-02-24T02:27:15.211Z,100.00
2023-02-24T02:30:13.869Z,100.00
2023-02-24T02:33:15.259Z,100.00
2023-02-24T02:35:54.384Z,100.00
2023-02-24T02:38:30.902Z,100.00
2023-02-24T02:41:07.296Z,100.00
2023-02-24T02:43:42.880Z,100.00
2023-02-24T02:46:17.628Z,100.00
2023-02-24T02:48:50.824Z,100.00
2023-02-24T02:51:26.388Z,100.00
2023-02-24T02:54:00.604Z,100.00
2023-02-24T02:56:33.759Z,100.00
2023-02-24T02:59:03.356Z,100.00
2023-02-24T03:01:34.973Z,100.00
2023-02-24T03:04:05.768Z,100.00
2023-02-24T03:06:38.453Z,100.00
2023-02-24T03:09:12.362Z,100.00
2023-02-24T03:11:41.721Z,100.00
2023-02-24T03:14:13.773Z,100.00
2023-02-24T03:16:46.089Z,100.00
2023-02-24T03:19:20.683Z,100.00
2023-02-24T03:21:57.634Z,100.00
2023-02-24T03:24:28.046Z,100.00
2023-02-24T03:27:06.844Z,100.00
2023-02-24T03:29:41.581Z,100.00
2023-02-24T03:32:15.550Z,100.00
2023-02-24T03:34:50.635Z,100.00
2023-02-24T03:37:25.700Z,100.00
2023-02-24T03:39:54.447Z,100.00
2023-02-24T03:42:23.808Z,100.00
2023-02-24T03:44:52.703Z,100.00
2023-02-24T03:47:20.888Z,100.00
2023-02-24T03:49:50.255Z,100.00
2023-02-24T03:52:29.161Z,100.00
2023-02-24T03:55:20.412Z,100.00
2023-02-24T03:58:01.032Z,100.00
2023-02-24T04:00:37.146Z,100.00
2023-02-24T04:03:15.327Z,100.00
2023-02-24T04:05:48.440Z,100.00
2023-02-24T04:08:20.303Z,100.00
2023-02-24T04:10:53.601Z,100.00
2023-02-24T04:13:31.404Z,100.00
2023-02-24T04:16:03.834Z,100.00
2023-02-24T04:18:33.879Z,100.00
2023-02-24T04:21:05.939Z,100.00
2023-02-24T04:23:41.235Z,100.00
2023-02-24T04:26:12.722Z,100.00
2023-02-24T04:28:42.441Z,100.00
2023-02-24T04:31:17.602Z,100.00
2023-02-24T04:33:50.296Z,100.00
2023-02-24T04:36:20.329Z,100.00
2023-02-24T04:38:49.931Z,100.00
2023-02-24T04:41:21.715Z,100.00
2023-02-24T04:43:50.949Z,100.00
2023-02-24T04:46:19.151Z,100.00
2023-02-24T04:48:47.193Z,100.00
2023-02-24T04:51:15.104Z,100.00
2023-02-24T04:53:42.957Z,100.00
2023-02-24T04:56:12.211Z,100.00
2023-02-24T04:58:41.594Z,100.00
2023-02-24T05:01:11.713Z,100.00
2023-02-24T05:03:42.577Z,100.00
2023-02-24T05:06:16.108Z,100.00
2023-02-24T05:08:45.131Z,100.00
2023-02-24T05:11:17.135Z,100.00
2023-02-24T05:13:47.217Z,100.00
2023-02-24T05:16:20.370Z,100.00
2023-02-24T05:18:48.503Z,100.00
2023-02-24T05:21:40.894Z,100.00
2023-02-24T05:24:11.303Z,100.00
2023-02-24T05:26:42.472Z,100.00
2023-02-24T05:29:13.276Z,100.00
2023-02-24T05:31:41.332Z,100.00
2023-02-24T05:34:09.978Z,100.00
2023-02-24T05:36:41.196Z,100.00
2023-02-24T05:39:12.413Z,100.00
2023-02-24T05:41:44.300Z,100.00
2023-02-24T05:44:15.864Z,100.00
2023-02-24T05:46:45.948Z,100.00
2023-02-24T05:49:17.087Z,100.00
2023-02-24T05:51:54.628Z,100.00
2023-02-24T05:54:25.850Z,100.00
2023-02-24T05:56:57.030Z,100.00
2023-02-24T05:59:25.517Z,100.00
2023-02-24T06:01:54.190Z,100.00
2023-02-24T06:04:27.992Z,100.00
2023-02-24T06:06:55.943Z,100.00
2023-02-24T06:09:24.206Z,100.00
2023-02-24T06:11:52.191Z,100.00
2023-02-24T06:14:22.393Z,100.00
2023-02-24T06:16:51.042Z,100.00
2023-02-24T06:19:20.723Z,100.00
2023-02-24T06:21:48.757Z,100.00
2023-02-24T06:24:18.389Z,100.00
2023-02-24T06:26:46.923Z,100.00
2023-02-24T06:29:16.170Z,100.00
2023-02-24T06:31:48.670Z,100.00
2023-02-24T06:34:18.589Z,100.00
2023-02-24T06:36:47.097Z,100.00
2023-02-24T06:39:14.998Z,100.00
2023-02-24T06:41:43.640Z,100.00
2023-02-24T06:44:11.506Z,100.00
2023-02-24T06:46:39.613Z,100.00
2023-02-24T06:49:09.957Z,100.00
2023-02-24T06:51:37.852Z,100.00
2023-02-24T06:54:06.225Z,100.00
2023-02-24T06:56:38.462Z,100.00
2023-02-24T06:59:11.953Z,100.00
2023-02-24T07:01:45.292Z,100.00
2023-02-24T07:04:26.394Z,100.00
2023-02-24T07:07:03.112Z,100.00
2023-02-24T07:12:21.964Z,100.00
2023-02-24T07:14:50.948Z,100.00
2023-02-24T07:17:19.889Z,100.00
2023-02-24T07:19:49.070Z,100.00
2023-02-24T07:22:17.588Z,100.00
2023-02-24T07:24:46.431Z,100.00
2023-02-24T07:27:22.651Z,100.00
2023-02-24T07:29:52.914Z,100.00
2023-02-24T07:32:22.837Z,100.00
2023-02-24T07:34:53.045Z,100.00
2023-02-24T07:37:22.976Z,100.00
2023-02-24T07:39:51.012Z,100.00
2023-02-24T07:42:18.869Z,100.00
2023-02-24T07:44:49.128Z,100.00
2023-02-24T07:47:17.332Z,100.00
2023-02-24T07:49:45.602Z,100.00
2023-02-24T07:52:16.203Z,100.00
2023-02-24T07:54:44.266Z,100.00
2023-02-24T07:57:14.225Z,100.00
2023-02-24T07:59:45.526Z,100.00
2023-02-24T08:02:13.971Z,100.00
2023-02-24T08:04:48.251Z,100.00
2023-02-24T08:07:20.113Z,100.00
2023-02-24T08:10:05.617Z,100.00
2023-02-24T08:12:35.139Z,100.00
2023-02-24T08:15:17.277Z,100.00
2023-02-24T08:17:47.419Z,100.00
2023-02-24T08:20:26.038Z,100.00
2023-02-24T08:22:56.038Z,100.00
2023-02-24T08:25:25.532Z,100.00
2023-02-24T08:28:07.322Z,100.00
2023-02-24T08:30:56.074Z,100.00
2023-02-24T08:33:32.120Z,100.00
2023-02-24T08:36:31.976Z,100.00
2023-02-24T08:42:00.854Z,100.00
2023-02-24T08:44:37.471Z,100.00
2023-02-24T08:47:25.317Z,100.00
2023-02-24T08:49:56.408Z,100.00
2023-02-24T08:52:44.300Z,100.00
2023-02-24T08:55:19.052Z,100.00
2023-02-24T08:58:01.974Z,100.00
2023-02-24T09:00:49.532Z,100.00
2023-02-24T09:03:34.286Z,100.00
2023-02-24T09:06:12.436Z,100.00
2023-02-24T09:09:17.592Z,100.00
2023-02-24T09:12:05.937Z,100.00
2023-02-24T09:14:50.579Z,100.00
2023-02-24T09:17:30.935Z,100.00
2023-02-24T09:20:34.407Z,100.00
2023-02-24T09:23:04.656Z,100.00
2023-02-24T09:25:49.700Z,100.00
2023-02-24T09:28:20.466Z,100.00
2023-02-24T09:30:54.864Z,100.00
2023-02-24T09:33:25.779Z,100.00
2023-02-24T09:36:03.392Z,100.00
2023-02-24T09:39:09.278Z,100.00
2023-02-24T09:41:56.950Z,100.00
2023-02-24T09:44:34.758Z,100.00
2023-02-24T09:47:13.498Z,96.27
2023-02-24T09:49:49.288Z,94.63
2023-02-24T09:52:19.780Z,92.12
2023-02-24T09:55:04.064Z,90.98
2023-02-24T09:57:37.548Z,91.12
2023-02-24T10:00:25.780Z,91.62
2023-02-24T10:03:00.245Z,92.50
2023-02-24T10:05:38.672Z,95.10
2023-02-24T10:08:17.865Z,97.75
2023-02-24T10:11:09.788Z,97.11
2023-02-24T10:13:42.633Z,97.25
2023-02-24T10:16:18.002Z,97.16
2023-02-24T10:19:01.102Z,97.26
2023-02-24T10:21:48.473Z,98.41
2023-02-24T10:24:23.461Z,100.00
2023-02-24T10:27:07.567Z,100.00
2023-02-24T10:30:01.149Z,100.00
2023-02-24T10:32:37.381Z,100.00
2023-02-24T10:35:06.313Z,100.00
2023-02-24T10:37:34.405Z,100.00
2023-02-24T10:40:10.166Z,95.93
2023-02-24T10:42:45.846Z,89.27
2023-02-24T10:45:19.391Z,84.62
2023-02-24T10:47:57.778Z,81.33
2023-02-24T10:50:31.012Z,80.29
2023-02-24T10:53:26.604Z,80.35
2023-02-24T10:56:16.259Z,78.02
2023-02-24T10:58:56.631Z,76.45
2023-02-24T11:01:40.893Z,75.52
2023-02-24T11:04:33.476Z,74.56
2023-02-24T11:07:09.829Z,75.38
2023-02-24T11:09:44.179Z,73.52
2023-02-24T11:12:35.795Z,72.68
2023-02-24T11:15:25.309Z,71.34
2023-02-24T11:17:58.405Z,72.16
2023-02-24T11:20:47.826Z,72.18
2023-02-24T11:23:20.201Z,69.81
2023-02-24T11:25:50.553Z,69.17
2023-02-24T11:28:35.294Z,66.81
2023-02-24T11:31:14.552Z,65.71
2023-02-24T11:33:52.483Z,67.06
2023-02-24T11:36:29.912Z,68.39
2023-02-24T11:39:19.269Z,66.14
2023-02-24T11:41:55.569Z,63.81
2023-02-24T11:44:29.140Z,64.46
2023-02-24T11:47:00.846Z,65.81
2023-02-24T11:49:37.614Z,65.36
2023-02-24T11:52:14.103Z,66.39
2023-02-24T11:54:48.549Z,67.92
2023-02-24T11:57:22.966Z,66.12
2023-02-24T11:59:58.955Z,66.40
2023-02-24T12:02:39.726Z,65.34
2023-02-24T12:05:14.420Z,66.60
2023-02-24T12:07:46.971Z,66.17
2023-02-24T12:10:18.285Z,67.71
2023-02-24T12:12:53.613Z,68.97
2023-02-24T12:15:26.514Z,70.50
2023-02-24T12:18:06.229Z,70.69
2023-02-24T12:20:40.520Z,70.24
2023-02-24T12:23:23.206Z,69.96
2023-02-24T12:26:09.040Z,70.43
2023-02-24T12:28:57.133Z,70.14
2023-02-24T12:31:35.407Z,68.61
2023-02-24T12:34:09.863Z,67.38
2023-02-24T12:37:17.574Z,67.47
2023-02-24T12:40:05.665Z,66.46
2023-02-24T12:42:47.510Z,66.87
2023-02-24T12:45:21.439Z,67.40
2023-02-24T12:48:00.778Z,67.19
2023-02-24T12:50:37.335Z,67.45
2023-02-24T12:53:15.627Z,67.96
2023-02-24T12:55:55.354Z,68.43
2023-02-24T12:58:27.773Z,69.93
2023-02-24T13:01:07.024Z,71.55
2023-02-24T13:03:54.771Z,75.46
2023-02-24T13:06:37.906Z,79.41
2023-02-24T13:09:16.698Z,82.01
2023-02-24T13:11:51.109Z,84.92
2023-02-24T13:14:27.570Z,86.29
2023-02-24T13:17:06.632Z,87.66
2023-02-24T13:19:34.503Z,86.24
2023-02-24T13:22:08.835Z,85.05
2023-02-24T13:24:38.900Z,85.89
2023-02-24T13:27:22.816Z,86.94
2023-02-24T13:29:52.931Z,88.26
2023-02-24T13:32:31.720Z,88.17
2023-02-24T13:35:02.271Z,88.54
2023-02-24T13:37:34.597Z,89.19
2023-02-24T13:40:23.448Z,91.29
2023-02-24T13:43:01.528Z,92.86
2023-02-24T13:45:32.767Z,95.85
2023-02-24T13:48:32.595Z,98.15
2023-02-24T13:51:14.504Z,100.00
2023-02-24T13:53:58.977Z,100.00
2023-02-24T13:56:40.078Z,100.00
2023-02-24T13:59:36.756Z,100.00
2023-02-24T14:02:13.393Z,100.00
2023-02-24T14:04:48.030Z,100.00
2023-02-24T14:07:22.540Z,100.00
2023-02-24T14:09:56.406Z,100.00
2023-02-24T14:12:27.941Z,100.00
2023-02-24T14:14:58.254Z,100.00
2023-02-24T14:17:30.431Z,100.00
2023-02-24T14:20:09.905Z,100.00
2023-02-24T14:22:44.682Z,100.00
2023-02-24T14:25:15.824Z,100.00
2023-02-24T14:27:46.642Z,100.00
2023-02-24T14:30:26.970Z,100.00
2023-02-24T14:32:55.586Z,100.00
2023-02-24T14:35:30.028Z,100.00
2023-02-24T14:37:58.007Z,100.00
2023-02-24T14:40:27.153Z,100.00
2023-02-24T14:42:57.208Z,100.00
2023-02-24T14:45:28.367Z,100.00
2023-02-24T14:47:57.653Z,100.00
2023-02-24T14:50:28.927Z,100.00
2023-02-24T14:53:00.362Z,100.00
2023-02-24T14:55:31.142Z,100.00
2023-02-24T14:58:03.147Z,100.00
2023-02-24T15:00:36.510Z,100.00
2023-02-24T15:03:12.935Z,100.00
2023-02-24T15:05:44.608Z,100.00
2023-02-24T15:08:27.231Z,100.00
2023-02-24T15:10:55.358Z,100.00
2023-02-24T15:13:30.620Z,100.00
2023-02-24T15:16:07.912Z,100.00
2023-02-24T15:18:36.240Z,100.00
2023-02-24T15:21:06.881Z,100.00
2023-02-24T15:23:37.174Z,100.00
2023-02-24T15:26:08.798Z,100.00
2023-02-24T15:28:38.324Z,100.00
2023-02-24T15:31:11.641Z,100.00
2023-02-24T15:33:41.618Z,100.00
2023-02-24T15:36:17.813Z,100.00
2023-02-24T15:38:46.945Z,100.00
2023-02-24T15:41:15.575Z,100.00
2023-02-24T15:43:50.214Z,100.00
2023-02-24T15:46:26.723Z,100.00
2023-02-24T15:48:56.496Z,100.00
2023-02-24T15:51:36.568Z,100.00
2023-02-24T15:54:07.636Z,100.00
2023-02-24T15:56:36.864Z,100.00
2023-02-24T15:59:06.352Z,100.00
2023-02-24T16:01:36.297Z,100.00
2023-02-24T16:04:05.727Z,100.00
2023-02-24T16:06:36.114Z,100.00
2023-02-24T16:09:05.395Z,100.00
2023-02-24T16:11:37.335Z,100.00
2023-02-24T16:14:05.281Z,100.00
2023-02-24T16:16:34.118Z,100.00
2023-02-24T16:19:03.390Z,100.00
2023-02-24T16:21:31.736Z,100.00
2023-02-24T16:23:59.687Z,100.00
2023-02-24T16:26:27.661Z,100.00
2023-02-24T16:28:57.566Z,100.00
2023-02-24T16:31:28.145Z,100.00
2023-02-24T16:33:58.676Z,100.00
2023-02-24T16:36:29.037Z,100.00
2023-02-24T16:38:58.040Z,100.00
2023-02-24T16:41:26.004Z,100.00
2023-02-24T16:43:55.074Z,100.00
2023-02-24T16:46:24.696Z,100.00
2023-02-24T16:48:54.371Z,100.00
2023-02-24T16:51:23.897Z,100.00
2023-02-24T16:53:53.183Z,100.00
2023-02-24T16:56:21.796Z,100.00
2023-02-24T16:58:50.725Z,100.00
2023-02-24T17:01:21.466Z,100.00
2023-02-24T17:03:52.613Z,100.00
2023-02-24T17:06:22.425Z,100.00
2023-02-24T17:08:53.306Z,100.00
2023-02-24T17:11:24.705Z,100.00
2023-02-24T17:13:54.150Z,100.00
2023-02-24T17:16:23.182Z,100.00
2023-02-24T17:18:52.095Z,100.00
2023-02-24T17:21:26.023Z,100.00
2023-02-24T17:23:58.997Z,100.00
2023-02-24T17:26:27.565Z,100.00
2023-02-24T17:28:58.154Z,100.00
2023-02-24T17:31:28.915Z,100.00
2023-02-24T17:33:58.623Z,100.00
2023-02-24T17:36:29.050Z,100.00
2023-02-24T17:39:01.420Z,100.00
2023-02-24T17:41:30.946Z,100.00
2023-02-24T17:43:59.002Z,100.00
2023-02-24T17:46:27.366Z,100.00
2023-02-24T17:49:02.948Z,100.00
2023-02-24T17:51:33.595Z,100.00
2023-02-24T17:54:04.659Z,100.00
2023-02-24T17:56:37.452Z,100.00
2023-02-24T17:59:17.134Z,100.00
2023-02-24T18:01:46.364Z,100.00
2023-02-24T18:04:15.250Z,100.00
2023-02-24T18:06:44.020Z,100.00
2023-02-24T18:09:17.664Z,100.00
2023-02-24T18:11:49.294Z,100.00
2023-02-24T18:14:17.600Z,100.00
2023-02-24T18:16:45.537Z,100.00
2023-02-24T18:19:13.471Z,100.00
2023-02-24T18:21:41.369Z,100.00
2023-02-24T18:24:10.145Z,100.00
2023-02-24T18:26:39.723Z,100.00
2023-02-24T18:29:08.074Z,100.00
2023-02-24T18:31:36.813Z,100.00
2023-02-24T18:34:09.988Z,100.00
2023-02-24T18:36:37.903Z,100.00
2023-02-24T18:39:14.183Z,100.00
2023-02-24T18:41:44.124Z,100.00
2023-02-24T18:44:13.760Z,100.00
2023-02-24T18:46:41.623Z,100.00
2023-02-24T18:49:12.101Z,100.00
2023-02-24T18:51:40.448Z,100.00
2023-02-24T18:54:08.340Z,100.00
2023-02-24T18:56:42.326Z,100.00
2023-02-24T18:59:12.175Z,100.00
2023-02-24T19:01:41.910Z,100.00
2023-02-24T19:04:10.552Z,100.00
2023-02-24T19:06:40.726Z,100.00
2023-02-24T19:09:12.498Z,100.00
2023-02-24T19:11:42.204Z,100.00
2023-02-24T19:14:16.837Z,100.00
2023-02-24T19:16:47.470Z,100.00
2023-02-24T19:19:18.944Z,100.00
2023-02-24T19:21:48.516Z,100.00
2023-02-24T19:24:17.811Z,100.00
2023-02-24T19:26:48.429Z,100.00
2023-02-24T19:29:29.476Z,100.00
2023-02-24T19:32:01.976Z,100.00
2023-02-24T19:34:30.106Z,100.00
2023-02-24T19:36:59.229Z,100.00
2023-02-24T19:39:45.180Z,100.00
2023-02-24T19:42:18.003Z,100.00
2023-02-24T19:44:57.687Z,100.00
2023-02-24T19:47:30.848Z,100.00
2023-02-24T19:50:18.430Z,100.00
2023-02-24T19:53:15.772Z,100.00
2023-02-24T19:55:53.389Z,100.00
2023-02-24T19:58:24.631Z,100.00
2023-02-24T20:01:09.011Z,100.00
2023-02-24T20:03:44.059Z,100.00
2023-02-24T20:06:24.243Z,100.00
2023-02-24T20:09:06.616Z,100.00
2023-02-24T20:11:48.200Z,100.00
2023-02-24T20:14:17.968Z,100.00
2023-02-24T20:16:59.061Z,100.00
2023-02-24T20:19:33.407Z,100.00
2023-02-24T20:22:05.828Z,100.00
2023-02-24T20:24:42.743Z,100.00
2023-02-24T20:27:20.472Z,100.00
2023-02-24T20:29:53.449Z,100.00
2023-02-24T20:32:33.676Z,100.00
2023-02-24T20:35:06.541Z,100.00
2023-02-24T20:37:35.462Z,100.00
2023-02-24T20:40:05.707Z,100.00
2023-02-24T20:42:39.311Z,100.00
2023-02-24T20:45:14.806Z,100.00
2023-02-24T20:48:01.913Z,100.00
2023-02-24T20:50:33.149Z,100.00
2023-02-24T20:53:08.488Z,100.00
2023-02-24T20:55:42.189Z,100.00
2023-02-24T20:58:10.753Z,100.00
2023-02-24T21:00:44.052Z,100.00
2023-02-24T21:03:29.288Z,100.00
2023-02-24T21:06:13.713Z,100.00
2023-02-24T21:08:45.246Z,100.00
2023-02-24T21:11:19.656Z,100.00
2023-02-24T21:13:50.298Z,100.00
2023-02-24T21:16:22.019Z,100.00
2023-02-24T21:22:17.848Z,100.00
2023-02-24T21:24:58.004Z,100.00
2023-02-24T21:27:42.056Z,100.00
2023-02-24T21:30:21.381Z,100.00
2023-02-24T21:33:00.473Z,100.00
2023-02-24T21:35:46.690Z,100.00
2023-02-24T21:41:17.662Z,100.00
2023-02-24T21:44:15.191Z,100.00
2023-02-24T21:47:44.969Z,100.00
2023-02-24T21:50:56.456Z,100.00
2023-02-24T21:53:54.844Z,100.00
2023-02-24T21:56:59.915Z,100.00
2023-02-24T21:59:43.588Z,100.00
2023-02-24T22:02:29.195Z,100.00
2023-02-24T22:05:41.720Z,100.00
2023-02-24T22:11:12.236Z,100.00
2023-02-24T22:14:04.412Z,100.00
2023-02-24T22:16:44.010Z,100.00
2023-02-24T22:19:53.601Z,100.00
2023-02-24T22:29:07.573Z,100.00
2023-02-24T22:32:19.342Z,100.00
2023-02-24T22:35:16.828Z,100.00
2023-02-24T22:38:21.873Z,100.00
2023-02-24T22:44:12.240Z,100.00
2023-02-24T22:46:58.431Z,100.00
2023-02-24T22:49:40.581Z,100.00
2023-02-24T22:52:40.882Z,100.00
2023-02-24T22:59:09.174Z,100.00
2023-02-24T23:02:00.900Z,100.00
2023-02-24T23:05:21.218Z,100.00
2023-02-24T23:08:02.551Z,100.00
2023-02-24T23:13:48.044Z,100.00
2023-02-24T23:20:04.655Z,100.00
2023-02-24T23:30:34.445Z,100.00
2023-02-24T23:40:13.600Z,100.00
2023-02-24T23:43:16.887Z,100.00
2023-02-24T23:55:52.745Z,100.00
2023-02-24T23:58:58.058Z,100.00
